sensor_id;sensor_type;location;lat;lon;timestamp;temperature;humidity
56240;DHT22;42154;51.992;5.896;2023-02-01T00:02:08;5.80;99.90
56240;DHT22;42154;51.992;5.896;2023-02-01T00:04:34;5.80;99.90
56240;DHT22;42154;51.992;5.896;2023-02-01T00:07:00;5.80;99.90
56240;DHT22;42154;51.992;5.896;2023-02-01T00:09:26;5.80;99.90
56240;DHT22;42154;51.992;5.896;2023-02-01T00:11:52;5.80;99.90
56240;DHT22;42154;51.992;5.896;2023-02-01T00:14:18;5.80;99.90
56240;DHT22;42154;51.992;5.896;2023-02-01T00:16:44;5.80;99.90
56240;DHT22;42154;51.992;5.896;2023-02-01T00:19:12;5.80;99.90
56240;DHT22;42154;51.992;5.896;2023-02-01T00:21:38;5.80;99.90
56240;DHT22;42154;51.992;5.896;2023-02-01T00:24:05;5.70;99.90
56240;DHT22;42154;51.992;5.896;2023-02-01T00:26:37;5.70;99.90
56240;DHT22;42154;51.992;5.896;2023-02-01T00:29:05;5.70;99.90
56240;DHT22;42154;51.992;5.896;2023-02-01T00:31:31;5.70;99.90
56240;DHT22;42154;51.992;5.896;2023-02-01T00:33:57;5.70;99.90
56240;DHT22;42154;51.992;5.896;2023-02-01T00:36:23;5.60;99.90
56240;DHT22;42154;51.992;5.896;2023-02-01T00:38:49;5.60;99.90
56240;DHT22;42154;51.992;5.896;2023-02-01T00:41:19;5.60;99.90
56240;DHT22;42154;51.992;5.896;2023-02-01T00:43:46;5.70;99.90
56240;DHT22;42154;51.992;5.896;2023-02-01T00:46:13;5.70;99.90
56240;DHT22;42154;51.992;5.896;2023-02-01T00:48:39;5.60;99.90
56240;DHT22;42154;51.992;5.896;2023-02-01T00:51:14;5.60;99.90
56240;DHT22;42154;51.992;5.896;2023-02-01T00:53:40;5.70;99.90
56240;DHT22;42154;51.992;5.896;2023-02-01T00:56:06;5.70;99.90
56240;DHT22;42154;51.992;5.896;2023-02-01T00:58:33;5.70;99.90
56240;DHT22;42154;51.992;5.896;2023-02-01T01:03:29;5.80;99.90
56240;DHT22;42154;51.992;5.896;2023-02-01T01:06:00;5.80;99.90
56240;DHT22;42154;51.992;5.896;2023-02-01T01:08:26;5.80;99.90
56240;DHT22;42154;51.992;5.896;2023-02-01T01:10:53;5.70;99.90
56240;DHT22;42154;51.992;5.896;2023-02-01T01:13:19;5.70;99.90
56240;DHT22;42154;51.992;5.896;2023-02-01T01:15:45;5.80;99.90
56240;DHT22;42154;51.992;5.896;2023-02-01T01:18:11;5.70;99.90
56240;DHT22;42154;51.992;5.896;2023-02-01T01:20:38;5.70;99.90
56240;DHT22;42154;51.992;5.896;2023-02-01T01:23:05;5.70;99.90
56240;DHT22;42154;51.992;5.896;2023-02-01T01:25:31;5.70;99.90
56240;DHT22;42154;51.992;5.896;2023-02-01T01:27:57;5.70;99.90
56240;DHT22;42154;51.992;5.896;2023-02-01T01:30:23;5.70;99.90
56240;DHT22;42154;51.992;5.896;2023-02-01T01:32:49;5.60;99.90
56240;DHT22;42154;51.992;5.896;2023-02-01T01:35:15;5.60;99.90
56240;DHT22;42154;51.992;5.896;2023-02-01T01:37:41;5.60;99.90
56240;DHT22;42154;51.992;5.896;2023-02-01T01:40:09;5.70;99.90
56240;DHT22;42154;51.992;5.896;2023-02-01T01:42:40;5.70;99.90
56240;DHT22;42154;51.992;5.896;2023-02-01T01:45:07;5.70;99.90
56240;DHT22;42154;51.992;5.896;2023-02-01T01:47:44;5.70;99.90
56240;DHT22;42154;51.992;5.896;2023-02-01T01:50:14;5.70;99.90
56240;DHT22;42154;51.992;5.896;2023-02-01T01:52:43;5.60;99.90
56240;DHT22;42154;51.992;5.896;2023-02-01T01:55:14;5.60;99.90
56240;DHT22;42154;51.992;5.896;2023-02-01T01:57:43;5.60;99.90
56240;DHT22;42154;51.992;5.896;2023-02-01T02:00:15;5.60;99.90
56240;DHT22;42154;51.992;5.896;2023-02-01T02:02:47;5.60;99.90
56240;DHT22;42154;51.992;5.896;2023-02-01T02:05:15;5.60;99.90
56240;DHT22;42154;51.992;5.896;2023-02-01T02:07:46;5.70;99.90
56240;DHT22;42154;51.992;5.896;2023-02-01T02:10:13;5.70;99.90
56240;DHT22;42154;51.992;5.896;2023-02-01T02:12:41;5.70;99.90
56240;DHT22;42154;51.992;5.896;2023-02-01T02:15:10;5.70;99.90
56240;DHT22;42154;51.992;5.896;2023-02-01T02:17:56;5.70;99.90
56240;DHT22;42154;51.992;5.896;2023-02-01T02:20:52;5.70;99.90
56240;DHT22;42154;51.992;5.896;2023-02-01T02:29:51;5.80;99.90
56240;DHT22;42154;51.992;5.896;2023-02-01T02:38:02;5.80;99.90
56240;DHT22;42154;51.992;5.896;2023-02-01T02:40:36;5.80;99.90
56240;DHT22;42154;51.992;5.896;2023-02-01T02:43:18;5.80;99.90
56240;DHT22;42154;51.992;5.896;2023-02-01T02:49:21;5.80;99.90
56240;DHT22;42154;51.992;5.896;2023-02-01T02:51:56;5.80;99.90
56240;DHT22;42154;51.992;5.896;2023-02-01T02:54:46;5.70;99.90
56240;DHT22;42154;51.992;5.896;2023-02-01T02:57:25;5.70;99.90
56240;DHT22;42154;51.992;5.896;2023-02-01T03:00:13;5.70;99.90
56240;DHT22;42154;51.992;5.896;2023-02-01T03:02:59;5.60;99.90
56240;DHT22;42154;51.992;5.896;2023-02-01T03:05:47;5.60;99.90
56240;DHT22;42154;51.992;5.896;2023-02-01T03:08:16;5.60;99.90
56240;DHT22;42154;51.992;5.896;2023-02-01T03:16:34;5.70;99.90
56240;DHT22;42154;51.992;5.896;2023-02-01T03:21:50;5.60;99.90
56240;DHT22;42154;51.992;5.896;2023-02-01T03:24:18;5.60;99.90
56240;DHT22;42154;51.992;5.896;2023-02-01T03:26:56;5.60;99.90
56240;DHT22;42154;51.992;5.896;2023-02-01T03:29:29;5.60;99.90
56240;DHT22;42154;51.992;5.896;2023-02-01T03:31:56;5.60;99.90
56240;DHT22;42154;51.992;5.896;2023-02-01T03:34:22;5.60;99.90
56240;DHT22;42154;51.992;5.896;2023-02-01T03:36:52;5.60;99.90
56240;DHT22;42154;51.992;5.896;2023-02-01T03:42:00;5.60;99.90
56240;DHT22;42154;51.992;5.896;2023-02-01T03:44:54;5.60;99.90
56240;DHT22;42154;51.992;5.896;2023-02-01T03:47:26;5.70;99.90
56240;DHT22;42154;51.992;5.896;2023-02-01T03:49:57;5.70;99.90
56240;DHT22;42154;51.992;5.896;2023-02-01T03:52:31;5.80;99.90
56240;DHT22;42154;51.992;5.896;2023-02-01T03:54:59;5.80;99.90
56240;DHT22;42154;51.992;5.896;2023-02-01T03:57:33;5.90;99.90
56240;DHT22;42154;51.992;5.896;2023-02-01T04:00:15;6.00;99.90
56240;DHT22;42154;51.992;5.896;2023-02-01T04:02:43;5.90;99.90
56240;DHT22;42154;51.992;5.896;2023-02-01T04:05:09;5.80;99.90
56240;DHT22;42154;51.992;5.896;2023-02-01T04:07:38;5.80;99.90
56240;DHT22;42154;51.992;5.896;2023-02-01T04:10:04;5.80;99.90
56240;DHT22;42154;51.992;5.896;2023-02-01T04:12:30;5.70;99.90
56240;DHT22;42154;51.992;5.896;2023-02-01T04:14:56;5.70;99.90
56240;DHT22;42154;51.992;5.896;2023-02-01T04:17:22;5.70;99.90
56240;DHT22;42154;51.992;5.896;2023-02-01T04:19:47;5.70;99.90
56240;DHT22;42154;51.992;5.896;2023-02-01T04:22:13;5.60;99.90
56240;DHT22;42154;51.992;5.896;2023-02-01T04:24:39;5.80;99.90
56240;DHT22;42154;51.992;5.896;2023-02-01T04:27:04;5.90;99.90
56240;DHT22;42154;51.992;5.896;2023-02-01T04:29:30;5.80;99.90
56240;DHT22;42154;51.992;5.896;2023-02-01T04:31:56;5.90;99.90
56240;DHT22;42154;51.992;5.896;2023-02-01T04:34:22;5.90;99.90
56240;DHT22;42154;51.992;5.896;2023-02-01T04:36:50;5.90;99.90
56240;DHT22;42154;51.992;5.896;2023-02-01T04:39:16;5.90;99.90
56240;DHT22;42154;51.992;5.896;2023-02-01T04:41:42;6.00;99.90
56240;DHT22;42154;51.992;5.896;2023-02-01T04:44:13;6.10;99.90
56240;DHT22;42154;51.992;5.896;2023-02-01T04:46:40;6.10;99.90
56240;DHT22;42154;51.992;5.896;2023-02-01T04:49:05;6.20;99.90
56240;DHT22;42154;51.992;5.896;2023-02-01T04:51:31;6.30;99.90
56240;DHT22;42154;51.992;5.896;2023-02-01T04:53:57;6.30;99.90
56240;DHT22;42154;51.992;5.896;2023-02-01T04:56:23;6.40;99.90
56240;DHT22;42154;51.992;5.896;2023-02-01T04:58:49;6.40;99.90
56240;DHT22;42154;51.992;5.896;2023-02-01T05:01:15;6.40;99.90
56240;DHT22;42154;51.992;5.896;2023-02-01T05:03:40;6.40;99.90
56240;DHT22;42154;51.992;5.896;2023-02-01T05:06:06;6.50;99.90
56240;DHT22;42154;51.992;5.896;2023-02-01T05:08:32;6.50;99.90
56240;DHT22;42154;51.992;5.896;2023-02-01T05:10:58;6.50;99.90
56240;DHT22;42154;51.992;5.896;2023-02-01T05:13:25;6.60;99.90
56240;DHT22;42154;51.992;5.896;2023-02-01T05:16:09;6.60;99.90
56240;DHT22;42154;51.992;5.896;2023-02-01T05:18:35;6.60;99.90
56240;DHT22;42154;51.992;5.896;2023-02-01T05:21:00;6.70;99.90
56240;DHT22;42154;51.992;5.896;2023-02-01T05:23:27;6.70;99.90
56240;DHT22;42154;51.992;5.896;2023-02-01T05:26:01;6.80;99.90
56240;DHT22;42154;51.992;5.896;2023-02-01T05:28:27;6.80;99.90
56240;DHT22;42154;51.992;5.896;2023-02-01T05:30:53;6.80;99.90
56240;DHT22;42154;51.992;5.896;2023-02-01T05:33:20;6.80;99.90
56240;DHT22;42154;51.992;5.896;2023-02-01T05:35:46;6.90;99.90
56240;DHT22;42154;51.992;5.896;2023-02-01T05:38:11;6.90;99.90
56240;DHT22;42154;51.992;5.896;2023-02-01T05:40:37;6.80;99.90
56240;DHT22;42154;51.992;5.896;2023-02-01T05:43:03;6.90;99.90
56240;DHT22;42154;51.992;5.896;2023-02-01T05:45:29;6.80;99.90
56240;DHT22;42154;51.992;5.896;2023-02-01T05:47:54;6.80;99.90
56240;DHT22;42154;51.992;5.896;2023-02-01T05:50:20;6.90;99.90
56240;DHT22;42154;51.992;5.896;2023-02-01T05:52:46;6.90;99.90
56240;DHT22;42154;51.992;5.896;2023-02-01T05:55:11;6.90;99.90
56240;DHT22;42154;51.992;5.896;2023-02-01T05:57:37;6.90;99.90
56240;DHT22;42154;51.992;5.896;2023-02-01T06:00:03;6.90;99.90
56240;DHT22;42154;51.992;5.896;2023-02-01T06:02:38;6.90;99.90
56240;DHT22;42154;51.992;5.896;2023-02-01T06:05:04;6.90;99.90
56240;DHT22;42154;51.992;5.896;2023-02-01T06:07:29;6.90;99.90
56240;DHT22;42154;51.992;5.896;2023-02-01T06:09:57;7.00;99.90
56240;DHT22;42154;51.992;5.896;2023-02-01T06:12:23;7.00;99.90
56240;DHT22;42154;51.992;5.896;2023-02-01T06:14:49;7.00;99.90
56240;DHT22;42154;51.992;5.896;2023-02-01T06:17:15;7.00;99.90
56240;DHT22;42154;51.992;5.896;2023-02-01T06:19:40;7.00;99.90
56240;DHT22;42154;51.992;5.896;2023-02-01T06:22:06;7.00;99.90
56240;DHT22;42154;51.992;5.896;2023-02-01T06:24:32;7.00;99.90
56240;DHT22;42154;51.992;5.896;2023-02-01T06:26:58;7.00;99.90
56240;DHT22;42154;51.992;5.896;2023-02-01T06:29:23;7.00;99.90
56240;DHT22;42154;51.992;5.896;2023-02-01T06:31:49;7.00;99.90
56240;DHT22;42154;51.992;5.896;2023-02-01T06:34:16;7.00;99.90
56240;DHT22;42154;51.992;5.896;2023-02-01T06:36:41;7.00;99.90
56240;DHT22;42154;51.992;5.896;2023-02-01T06:39:07;7.00;99.90
56240;DHT22;42154;51.992;5.896;2023-02-01T06:41:33;7.00;99.90
56240;DHT22;42154;51.992;5.896;2023-02-01T06:44:00;7.00;99.90
56240;DHT22;42154;51.992;5.896;2023-02-01T06:46:26;7.00;99.90
56240;DHT22;42154;51.992;5.896;2023-02-01T06:48:52;7.00;99.90
56240;DHT22;42154;51.992;5.896;2023-02-01T06:51:20;7.00;99.90
56240;DHT22;42154;51.992;5.896;2023-02-01T06:53:46;7.10;99.90
56240;DHT22;42154;51.992;5.896;2023-02-01T06:56:12;7.00;99.90
56240;DHT22;42154;51.992;5.896;2023-02-01T06:58:37;7.10;99.90
56240;DHT22;42154;51.992;5.896;2023-02-01T07:01:08;7.10;99.90
56240;DHT22;42154;51.992;5.896;2023-02-01T07:03:34;7.10;99.90
56240;DHT22;42154;51.992;5.896;2023-02-01T07:06:01;7.00;99.90
56240;DHT22;42154;51.992;5.896;2023-02-01T07:08:28;7.10;99.90
56240;DHT22;42154;51.992;5.896;2023-02-01T07:10:54;7.20;99.90
56240;DHT22;42154;51.992;5.896;2023-02-01T07:13:20;7.20;99.90
56240;DHT22;42154;51.992;5.896;2023-02-01T07:15:46;7.10;99.90
56240;DHT22;42154;51.992;5.896;2023-02-01T07:18:15;7.20;99.90
56240;DHT22;42154;51.992;5.896;2023-02-01T07:20:41;7.20;99.90
56240;DHT22;42154;51.992;5.896;2023-02-01T07:23:09;7.10;99.90
56240;DHT22;42154;51.992;5.896;2023-02-01T07:25:35;7.00;99.90
56240;DHT22;42154;51.992;5.896;2023-02-01T07:28:02;7.00;99.90
56240;DHT22;42154;51.992;5.896;2023-02-01T07:30:27;7.00;99.90
56240;DHT22;42154;51.992;5.896;2023-02-01T07:32:53;7.00;99.90
56240;DHT22;42154;51.992;5.896;2023-02-01T07:35:19;7.00;99.90
56240;DHT22;42154;51.992;5.896;2023-02-01T07:37:45;6.90;99.90
56240;DHT22;42154;51.992;5.896;2023-02-01T07:40:11;6.90;99.90
56240;DHT22;42154;51.992;5.896;2023-02-01T07:42:37;6.90;99.90
56240;DHT22;42154;51.992;5.896;2023-02-01T07:45:03;6.90;99.90
56240;DHT22;42154;51.992;5.896;2023-02-01T07:47:29;6.90;99.90
56240;DHT22;42154;51.992;5.896;2023-02-01T07:49:55;6.80;99.90
56240;DHT22;42154;51.992;5.896;2023-02-01T07:52:20;6.80;99.90
56240;DHT22;42154;51.992;5.896;2023-02-01T07:54:46;6.90;99.90
56240;DHT22;42154;51.992;5.896;2023-02-01T07:57:12;6.90;99.90
56240;DHT22;42154;51.992;5.896;2023-02-01T07:59:38;6.90;99.90
56240;DHT22;42154;51.992;5.896;2023-02-01T08:02:27;6.90;99.90
56240;DHT22;42154;51.992;5.896;2023-02-01T08:04:53;6.90;99.90
56240;DHT22;42154;51.992;5.896;2023-02-01T08:07:18;6.90;99.90
56240;DHT22;42154;51.992;5.896;2023-02-01T08:09:44;6.90;99.90
56240;DHT22;42154;51.992;5.896;2023-02-01T08:12:10;6.90;99.90
56240;DHT22;42154;51.992;5.896;2023-02-01T08:14:35;6.90;99.90
56240;DHT22;42154;51.992;5.896;2023-02-01T08:17:01;7.00;99.90
56240;DHT22;42154;51.992;5.896;2023-02-01T08:19:27;7.00;99.90
56240;DHT22;42154;51.992;5.896;2023-02-01T08:21:53;7.00;99.90
56240;DHT22;42154;51.992;5.896;2023-02-01T08:24:18;7.00;99.90
56240;DHT22;42154;51.992;5.896;2023-02-01T08:26:44;7.00;99.90
56240;DHT22;42154;51.992;5.896;2023-02-01T08:29:10;7.00;99.90
56240;DHT22;42154;51.992;5.896;2023-02-01T08:31:37;7.00;99.90
56240;DHT22;42154;51.992;5.896;2023-02-01T08:34:06;7.00;99.90
56240;DHT22;42154;51.992;5.896;2023-02-01T08:36:33;7.10;99.90
56240;DHT22;42154;51.992;5.896;2023-02-01T08:39:00;7.10;99.90
56240;DHT22;42154;51.992;5.896;2023-02-01T08:41:28;7.10;99.90
56240;DHT22;42154;51.992;5.896;2023-02-01T08:43:55;7.30;99.90
56240;DHT22;42154;51.992;5.896;2023-02-01T08:46:22;7.30;99.90
56240;DHT22;42154;51.992;5.896;2023-02-01T08:48:49;7.40;99.90
56240;DHT22;42154;51.992;5.896;2023-02-01T08:51:17;7.40;99.90
56240;DHT22;42154;51.992;5.896;2023-02-01T08:53:43;7.50;99.90
56240;DHT22;42154;51.992;5.896;2023-02-01T08:56:10;7.60;99.90
56240;DHT22;42154;51.992;5.896;2023-02-01T08:58:37;7.60;99.90
56240;DHT22;42154;51.992;5.896;2023-02-01T09:01:11;7.70;99.90
56240;DHT22;42154;51.992;5.896;2023-02-01T09:03:37;7.80;99.90
56240;DHT22;42154;51.992;5.896;2023-02-01T09:06:09;7.90;99.90
56240;DHT22;42154;51.992;5.896;2023-02-01T09:08:35;7.80;99.90
56240;DHT22;42154;51.992;5.896;2023-02-01T09:11:08;7.90;99.90
56240;DHT22;42154;51.992;5.896;2023-02-01T09:13:34;7.90;99.90
56240;DHT22;42154;51.992;5.896;2023-02-01T09:16:01;7.90;99.90
56240;DHT22;42154;51.992;5.896;2023-02-01T09:18:26;8.00;99.90
56240;DHT22;42154;51.992;5.896;2023-02-01T09:20:52;8.00;99.90
56240;DHT22;42154;51.992;5.896;2023-02-01T09:23:18;8.00;99.90
56240;DHT22;42154;51.992;5.896;2023-02-01T09:25:46;8.10;99.90
56240;DHT22;42154;51.992;5.896;2023-02-01T09:28:12;8.10;99.90
56240;DHT22;42154;51.992;5.896;2023-02-01T09:30:38;8.20;99.90
56240;DHT22;42154;51.992;5.896;2023-02-01T09:33:04;8.10;99.90
56240;DHT22;42154;51.992;5.896;2023-02-01T09:35:30;8.20;99.90
56240;DHT22;42154;51.992;5.896;2023-02-01T09:37:55;8.20;99.90
56240;DHT22;42154;51.992;5.896;2023-02-01T09:40:21;8.30;99.90
56240;DHT22;42154;51.992;5.896;2023-02-01T09:43:10;8.30;99.90
56240;DHT22;42154;51.992;5.896;2023-02-01T09:48:19;8.50;99.90
56240;DHT22;42154;51.992;5.896;2023-02-01T09:50:51;8.50;99.90
56240;DHT22;42154;51.992;5.896;2023-02-01T09:53:44;8.50;99.90
56240;DHT22;42154;51.992;5.896;2023-02-01T09:56:15;8.50;99.90
56240;DHT22;42154;51.992;5.896;2023-02-01T10:01:20;8.30;99.90
56240;DHT22;42154;51.992;5.896;2023-02-01T10:03:48;8.30;99.90
56240;DHT22;42154;51.992;5.896;2023-02-01T10:11:28;8.30;99.90
56240;DHT22;42154;51.992;5.896;2023-02-01T10:14:25;8.30;99.90
56240;DHT22;42154;51.992;5.896;2023-02-01T10:20:02;8.20;99.90
56240;DHT22;42154;51.992;5.896;2023-02-01T10:22:41;8.20;99.90
56240;DHT22;42154;51.992;5.896;2023-02-01T10:27:53;8.20;99.90
56240;DHT22;42154;51.992;5.896;2023-02-01T10:30:22;8.20;99.90
56240;DHT22;42154;51.992;5.896;2023-02-01T10:32:57;8.20;99.90
56240;DHT22;42154;51.992;5.896;2023-02-01T10:35:34;8.20;99.90
56240;DHT22;42154;51.992;5.896;2023-02-01T10:38:02;8.10;99.90
56240;DHT22;42154;51.992;5.896;2023-02-01T10:40:31;8.10;99.90
56240;DHT22;42154;51.992;5.896;2023-02-01T10:42:59;8.10;99.90
56240;DHT22;42154;51.992;5.896;2023-02-01T10:45:30;8.10;99.90
56240;DHT22;42154;51.992;5.896;2023-02-01T10:47:59;8.10;99.90
56240;DHT22;42154;51.992;5.896;2023-02-01T10:53:29;8.00;99.90
56240;DHT22;42154;51.992;5.896;2023-02-01T10:55:56;7.90;99.90
56240;DHT22;42154;51.992;5.896;2023-02-01T10:58:28;7.80;99.90
56240;DHT22;42154;51.992;5.896;2023-02-01T11:01:04;7.70;99.90
56240;DHT22;42154;51.992;5.896;2023-02-01T11:03:36;7.70;99.90
56240;DHT22;42154;51.992;5.896;2023-02-01T11:08:52;7.70;99.90
56240;DHT22;42154;51.992;5.896;2023-02-01T11:11:20;7.60;99.90
56240;DHT22;42154;51.992;5.896;2023-02-01T11:13:52;7.70;99.90
56240;DHT22;42154;51.992;5.896;2023-02-01T11:16:18;7.60;99.90
56240;DHT22;42154;51.992;5.896;2023-02-01T11:18:53;7.70;99.90
56240;DHT22;42154;51.992;5.896;2023-02-01T11:21:20;7.60;99.90
56240;DHT22;42154;51.992;5.896;2023-02-01T11:23:47;7.60;99.90
56240;DHT22;42154;51.992;5.896;2023-02-01T11:26:24;7.60;99.90
56240;DHT22;42154;51.992;5.896;2023-02-01T11:29:01;7.70;99.90
56240;DHT22;42154;51.992;5.896;2023-02-01T11:31:29;7.80;99.90
56240;DHT22;42154;51.992;5.896;2023-02-01T11:33:59;7.80;99.90
56240;DHT22;42154;51.992;5.896;2023-02-01T11:36:28;7.80;99.90
56240;DHT22;42154;51.992;5.896;2023-02-01T11:42:13;7.80;99.90
56240;DHT22;42154;51.992;5.896;2023-02-01T11:44:41;7.90;99.90
56240;DHT22;42154;51.992;5.896;2023-02-01T11:47:30;7.90;99.90
56240;DHT22;42154;51.992;5.896;2023-02-01T11:50:05;7.90;99.90
56240;DHT22;42154;51.992;5.896;2023-02-01T11:52:43;7.90;99.90
56240;DHT22;42154;51.992;5.896;2023-02-01T12:06:25;7.90;99.90
56240;DHT22;42154;51.992;5.896;2023-02-01T12:14:23;8.10;99.90
56240;DHT22;42154;51.992;5.896;2023-02-01T12:20:01;8.10;99.90
56240;DHT22;42154;51.992;5.896;2023-02-01T12:36:22;8.30;99.90
56240;DHT22;42154;51.992;5.896;2023-02-01T12:39:13;8.40;99.90
56240;DHT22;42154;51.992;5.896;2023-02-01T12:52:28;8.50;99.90
56240;DHT22;42154;51.992;5.896;2023-02-01T12:57:39;8.50;99.90
56240;DHT22;42154;51.992;5.896;2023-02-01T13:00:32;8.60;99.90
56240;DHT22;42154;51.992;5.896;2023-02-01T13:03:13;8.60;99.90
56240;DHT22;42154;51.992;5.896;2023-02-01T13:11:09;8.60;99.90
56240;DHT22;42154;51.992;5.896;2023-02-01T13:16:58;8.60;99.90
56240;DHT22;42154;51.992;5.896;2023-02-01T13:22:20;8.60;99.90
56240;DHT22;42154;51.992;5.896;2023-02-01T13:24:52;8.60;99.90
56240;DHT22;42154;51.992;5.896;2023-02-01T13:27:19;8.60;99.90
56240;DHT22;42154;51.992;5.896;2023-02-01T13:38:32;8.60;99.90
56240;DHT22;42154;51.992;5.896;2023-02-01T13:41:39;8.60;99.90
56240;DHT22;42154;51.992;5.896;2023-02-01T13:44:16;8.60;99.90
56240;DHT22;42154;51.992;5.896;2023-02-01T13:46:46;8.60;99.90
56240;DHT22;42154;51.992;5.896;2023-02-01T13:49:21;8.60;99.90
56240;DHT22;42154;51.992;5.896;2023-02-01T13:51:51;8.60;99.90
56240;DHT22;42154;51.992;5.896;2023-02-01T13:54:38;8.60;99.90
56240;DHT22;42154;51.992;5.896;2023-02-01T13:59:52;8.60;99.90
56240;DHT22;42154;51.992;5.896;2023-02-01T14:05:02;8.70;99.90
56240;DHT22;42154;51.992;5.896;2023-02-01T14:07:28;8.60;99.90
56240;DHT22;42154;51.992;5.896;2023-02-01T14:09:54;8.60;99.90
56240;DHT22;42154;51.992;5.896;2023-02-01T14:12:42;8.60;99.90
56240;DHT22;42154;51.992;5.896;2023-02-01T14:15:35;8.60;99.90
56240;DHT22;42154;51.992;5.896;2023-02-01T14:18:01;8.60;99.90
56240;DHT22;42154;51.992;5.896;2023-02-01T14:23:12;8.70;99.90
56240;DHT22;42154;51.992;5.896;2023-02-01T14:25:39;8.70;99.90
56240;DHT22;42154;51.992;5.896;2023-02-01T14:28:23;8.70;99.90
56240;DHT22;42154;51.992;5.896;2023-02-01T14:30:50;8.70;99.90
56240;DHT22;42154;51.992;5.896;2023-02-01T14:33:21;8.70;99.90
56240;DHT22;42154;51.992;5.896;2023-02-01T14:36:09;8.80;99.90
56240;DHT22;42154;51.992;5.896;2023-02-01T14:38:37;8.80;99.90
56240;DHT22;42154;51.992;5.896;2023-02-01T14:41:28;8.80;99.90
56240;DHT22;42154;51.992;5.896;2023-02-01T14:49:39;8.80;99.90
56240;DHT22;42154;51.992;5.896;2023-02-01T14:52:13;8.70;99.90
56240;DHT22;42154;51.992;5.896;2023-02-01T14:54:41;8.70;99.90
56240;DHT22;42154;51.992;5.896;2023-02-01T14:57:15;8.70;99.90
56240;DHT22;42154;51.992;5.896;2023-02-01T14:59:43;8.80;99.90
56240;DHT22;42154;51.992;5.896;2023-02-01T15:02:23;8.80;99.90
56240;DHT22;42154;51.992;5.896;2023-02-01T15:04:54;8.80;99.90
56240;DHT22;42154;51.992;5.896;2023-02-01T15:07:23;8.80;99.90
56240;DHT22;42154;51.992;5.896;2023-02-01T15:09:50;8.80;99.90
56240;DHT22;42154;51.992;5.896;2023-02-01T15:12:24;8.80;99.90
56240;DHT22;42154;51.992;5.896;2023-02-01T15:15:18;8.90;99.90
56240;DHT22;42154;51.992;5.896;2023-02-01T15:17:59;8.90;99.90
56240;DHT22;42154;51.992;5.896;2023-02-01T15:20:31;8.90;99.90
56240;DHT22;42154;51.992;5.896;2023-02-01T15:23:02;8.80;99.90
56240;DHT22;42154;51.992;5.896;2023-02-01T15:25:35;8.80;99.90
56240;DHT22;42154;51.992;5.896;2023-02-01T15:28:02;8.80;99.90
56240;DHT22;42154;51.992;5.896;2023-02-01T15:30:31;8.70;99.90
56240;DHT22;42154;51.992;5.896;2023-02-01T15:35:40;8.60;99.90
56240;DHT22;42154;51.992;5.896;2023-02-01T15:41:20;8.60;99.90
56240;DHT22;42154;51.992;5.896;2023-02-01T15:44:07;8.50;99.90
56240;DHT22;42154;51.992;5.896;2023-02-01T15:46:39;8.50;99.90
56240;DHT22;42154;51.992;5.896;2023-02-01T15:49:20;8.50;99.90
56240;DHT22;42154;51.992;5.896;2023-02-01T15:51:47;8.40;99.90
56240;DHT22;42154;51.992;5.896;2023-02-01T15:54:19;8.30;99.90
56240;DHT22;42154;51.992;5.896;2023-02-01T15:56:51;8.10;99.90
56240;DHT22;42154;51.992;5.896;2023-02-01T15:59:32;8.00;99.90
56240;DHT22;42154;51.992;5.896;2023-02-01T16:01:58;7.90;99.90
56240;DHT22;42154;51.992;5.896;2023-02-01T16:04:27;7.90;99.90
56240;DHT22;42154;51.992;5.896;2023-02-01T16:07:03;7.80;99.90
56240;DHT22;42154;51.992;5.896;2023-02-01T16:09:56;7.70;99.90
56240;DHT22;42154;51.992;5.896;2023-02-01T16:15:08;7.80;99.90
56240;DHT22;42154;51.992;5.896;2023-02-01T16:17:34;7.80;99.90
56240;DHT22;42154;51.992;5.896;2023-02-01T16:20:00;7.90;99.90
56240;DHT22;42154;51.992;5.896;2023-02-01T16:22:26;8.00;99.90
56240;DHT22;42154;51.992;5.896;2023-02-01T16:24:52;8.10;99.90
56240;DHT22;42154;51.992;5.896;2023-02-01T16:27:18;8.20;99.90
56240;DHT22;42154;51.992;5.896;2023-02-01T16:29:43;8.30;99.90
56240;DHT22;42154;51.992;5.896;2023-02-01T16:32:18;8.40;99.90
56240;DHT22;42154;51.992;5.896;2023-02-01T16:34:46;8.50;99.90
56240;DHT22;42154;51.992;5.896;2023-02-01T16:37:19;8.50;99.90
56240;DHT22;42154;51.992;5.896;2023-02-01T16:39:46;8.50;99.90
56240;DHT22;42154;51.992;5.896;2023-02-01T16:42:12;8.60;99.90
56240;DHT22;42154;51.992;5.896;2023-02-01T16:44:39;8.60;99.90
56240;DHT22;42154;51.992;5.896;2023-02-01T16:47:25;8.60;99.90
56240;DHT22;42154;51.992;5.896;2023-02-01T16:49:51;8.70;99.90
56240;DHT22;42154;51.992;5.896;2023-02-01T16:52:19;8.70;99.90
56240;DHT22;42154;51.992;5.896;2023-02-01T16:54:46;8.70;99.90
56240;DHT22;42154;51.992;5.896;2023-02-01T16:57:14;8.70;99.90
56240;DHT22;42154;51.992;5.896;2023-02-01T16:59:41;8.70;99.90
56240;DHT22;42154;51.992;5.896;2023-02-01T17:02:16;8.70;99.90
56240;DHT22;42154;51.992;5.896;2023-02-01T17:04:42;8.80;99.90
56240;DHT22;42154;51.992;5.896;2023-02-01T17:07:16;8.80;99.90
56240;DHT22;42154;51.992;5.896;2023-02-01T17:09:42;8.80;99.90
56240;DHT22;42154;51.992;5.896;2023-02-01T17:12:22;8.80;99.90
56240;DHT22;42154;51.992;5.896;2023-02-01T17:14:48;8.80;99.90
56240;DHT22;42154;51.992;5.896;2023-02-01T17:17:16;8.80;99.90
56240;DHT22;42154;51.992;5.896;2023-02-01T17:19:44;8.80;99.90
56240;DHT22;42154;51.992;5.896;2023-02-01T17:22:11;8.80;99.90
56240;DHT22;42154;51.992;5.896;2023-02-01T17:24:39;8.80;99.90
56240;DHT22;42154;51.992;5.896;2023-02-01T17:27:05;8.80;99.90
56240;DHT22;42154;51.992;5.896;2023-02-01T17:29:31;8.90;99.90
56240;DHT22;42154;51.992;5.896;2023-02-01T17:31:56;8.90;99.90
56240;DHT22;42154;51.992;5.896;2023-02-01T17:34:24;8.90;99.90
56240;DHT22;42154;51.992;5.896;2023-02-01T17:36:50;8.90;99.90
56240;DHT22;42154;51.992;5.896;2023-02-01T17:39:17;8.90;99.90
56240;DHT22;42154;51.992;5.896;2023-02-01T17:42:02;9.00;99.90
56240;DHT22;42154;51.992;5.896;2023-02-01T17:44:28;8.90;99.90
56240;DHT22;42154;51.992;5.896;2023-02-01T17:46:54;8.90;99.90
56240;DHT22;42154;51.992;5.896;2023-02-01T17:49:22;8.90;99.90
56240;DHT22;42154;51.992;5.896;2023-02-01T17:51:48;8.90;99.90
56240;DHT22;42154;51.992;5.896;2023-02-01T17:54:15;8.90;99.90
56240;DHT22;42154;51.992;5.896;2023-02-01T17:56:42;8.90;99.90
56240;DHT22;42154;51.992;5.896;2023-02-01T17:59:08;8.80;99.90
56240;DHT22;42154;51.992;5.896;2023-02-01T18:01:33;8.80;99.90
56240;DHT22;42154;51.992;5.896;2023-02-01T18:03:59;8.90;99.90
56240;DHT22;42154;51.992;5.896;2023-02-01T18:06:26;8.90;99.90
56240;DHT22;42154;51.992;5.896;2023-02-01T18:08:52;8.90;99.90
56240;DHT22;42154;51.992;5.896;2023-02-01T18:11:23;8.90;99.90
56240;DHT22;42154;51.992;5.896;2023-02-01T18:13:51;9.00;99.90
56240;DHT22;42154;51.992;5.896;2023-02-01T18:16:25;9.00;99.90
56240;DHT22;42154;51.992;5.896;2023-02-01T18:18:52;9.00;99.90
56240;DHT22;42154;51.992;5.896;2023-02-01T18:21:21;9.00;99.90
56240;DHT22;42154;51.992;5.896;2023-02-01T18:23:47;9.00;99.90
56240;DHT22;42154;51.992;5.896;2023-02-01T18:26:16;9.00;99.90